createdAt,value
2023-02-16T00:00:30.661Z,0.00
2023-02-16T00:01:30.667Z,0.00
2023-02-16T00:02:30.665Z,0.00
2023-02-16T00:03:30.661Z,0.00
2023-02-16T00:04:30.627Z,0.00
2023-02-16T00:05:30.597Z,0.00
2023-02-16T00:06:30.587Z,0.00
2023-02-16T00:07:30.578Z,0.00
2023-02-16T00:08:30.573Z,0.00
2023-02-16T00:09:30.560Z,0.00
2023-02-16T00:10:30.548Z,0.00
2023-02-16T00:11:30.538Z,0.00
2023-02-16T00:12:30.531Z,0.00
2023-02-16T00:13:30.518Z,0.00
2023-02-16T00:14:30.515Z,0.00
2023-02-16T00:15:30.504Z,0.00
2023-02-16T00:16:30.475Z,0.00
2023-02-16T00:17:30.487Z,0.00
2023-02-16T00:18:30.455Z,0.00
2023-02-16T00:19:30.462Z,0.00
2023-02-16T00:20:30.459Z,0.00
2023-02-16T00:21:30.430Z,0.00
2023-02-16T00:22:30.431Z,0.00
2023-02-16T00:23:30.404Z,0.00
2023-02-16T00:24:30.387Z,0.00
2023-02-16T00:25:30.378Z,0.00
2023-02-16T00:26:30.399Z,0.00
2023-02-16T00:27:30.379Z,0.00
2023-02-16T00:28:30.355Z,0.00
2023-02-16T00:29:30.334Z,0.00
2023-02-16T00:30:30.358Z,0.00
2023-02-16T00:31:30.443Z,0.00
2023-02-16T00:32:30.304Z,0.00
2023-02-16T00:33:30.460Z,0.00
2023-02-16T00:34:30.284Z,0.00
2023-02-16T00:35:30.280Z,0.00
2023-02-16T00:36:30.271Z,0.00
2023-02-16T00:37:30.259Z,0.00
2023-02-16T00:38:30.244Z,0.00
2023-02-16T00:39:30.225Z,0.00
2023-02-16T00:40:30.215Z,0.00
2023-02-16T00:41:30.205Z,0.00
2023-02-16T00:42:30.235Z,0.00
2023-02-16T00:43:30.182Z,0.00
2023-02-16T00:44:30.190Z,0.00
2023-02-16T00:45:30.171Z,0.00
2023-02-16T00:46:30.245Z,0.00
2023-02-16T00:47:30.157Z,0.00
2023-02-16T00:48:30.128Z,0.00
2023-02-16T00:49:30.147Z,0.00
2023-02-16T00:50:30.126Z,0.00
2023-02-16T00:51:30.102Z,0.00
2023-02-16T00:52:30.093Z,0.00
2023-02-16T00:53:30.087Z,0.00
2023-02-16T00:54:31.942Z,0.00
2023-02-16T00:55:30.064Z,0.00
2023-02-16T00:56:30.041Z,0.00
2023-02-16T00:57:30.035Z,0.00
2023-02-16T00:58:30.043Z,0.00
2023-02-16T00:59:30.018Z,0.00
2023-02-16T01:00:30.027Z,0.00
2023-02-16T01:01:30.033Z,0.00
2023-02-16T01:02:29.995Z,0.00
2023-02-16T01:03:29.970Z,0.00
2023-02-16T01:04:30.109Z,0.00
2023-02-16T01:05:29.963Z,0.00
2023-02-16T01:06:29.947Z,0.00
2023-02-16T01:07:29.920Z,0.00
2023-02-16T01:08:29.906Z,0.00
2023-02-16T01:09:29.914Z,0.00
2023-02-16T01:10:29.895Z,0.00
2023-02-16T01:11:29.876Z,0.00
2023-02-16T01:12:29.860Z,0.00
2023-02-16T01:13:29.861Z,0.00
2023-02-16T01:14:29.845Z,0.00
2023-02-16T01:15:29.887Z,0.00
2023-02-16T01:16:29.821Z,0.00
2023-02-16T01:17:29.809Z,0.00
2023-02-16T01:18:29.799Z,0.00
2023-02-16T01:19:29.783Z,0.00
2023-02-16T01:20:29.781Z,0.00
2023-02-16T01:21:29.783Z,0.00
2023-02-16T01:22:29.746Z,0.00
2023-02-16T01:23:29.756Z,0.00
2023-02-16T01:24:29.733Z,0.00
2023-02-16T01:25:29.714Z,0.00
2023-02-16T01:26:29.705Z,0.00
2023-02-16T01:27:29.690Z,0.00
2023-02-16T01:28:29.691Z,0.00
2023-02-16T01:29:29.674Z,0.00
2023-02-16T01:30:29.767Z,0.00
2023-02-16T01:31:29.797Z,0.00
2023-02-16T01:32:29.644Z,0.00
2023-02-16T01:33:29.633Z,0.00
2023-02-16T01:34:29.617Z,0.00
2023-02-16T01:35:29.610Z,0.00
2023-02-16T01:36:29.622Z,0.00
2023-02-16T01:37:29.601Z,0.00
2023-02-16T01:38:29.588Z,0.00
2023-02-16T01:39:29.583Z,0.00
2023-02-16T01:40:29.552Z,0.00
2023-02-16T01:41:29.545Z,0.00
2023-02-16T01:42:29.534Z,0.00
2023-02-16T01:43:29.527Z,0.00
2023-02-16T01:44:29.500Z,0.00
2023-02-16T01:45:29.490Z,0.00
2023-02-16T01:46:29.533Z,0.00
2023-02-16T01:47:29.487Z,0.00
2023-02-16T01:48:29.464Z,0.00
2023-02-16T01:49:29.449Z,0.00
2023-02-16T01:50:29.446Z,0.00
2023-02-16T01:51:29.432Z,0.00
2023-02-16T01:52:29.422Z,0.00
2023-02-16T01:53:29.423Z,0.00
2023-02-16T01:54:29.403Z,0.00
2023-02-16T01:55:29.384Z,0.00
2023-02-16T01:56:29.381Z,0.00
2023-02-16T01:57:29.366Z,0.00
2023-02-16T01:58:29.356Z,0.00
2023-02-16T01:59:29.342Z,0.00
2023-02-16T02:00:29.347Z,0.00
2023-02-16T02:01:29.417Z,0.00
2023-02-16T02:02:29.313Z,0.00
2023-02-16T02:03:29.303Z,0.00
2023-02-16T02:04:29.285Z,0.00
2023-02-16T02:05:29.269Z,0.00
2023-02-16T02:06:29.255Z,0.00
2023-02-16T02:07:29.245Z,0.00
2023-02-16T02:08:29.240Z,0.00
2023-02-16T02:09:29.260Z,0.00
2023-02-16T02:10:29.218Z,0.00
2023-02-16T02:11:29.203Z,0.00
2023-02-16T02:12:29.195Z,0.00
2023-02-16T02:13:29.192Z,0.00
2023-02-16T02:14:29.177Z,0.00
2023-02-16T02:15:29.153Z,0.00
2023-02-16T02:16:29.234Z,0.00
2023-02-16T02:17:29.138Z,0.00
2023-02-16T02:18:29.132Z,0.00
2023-02-16T02:19:29.108Z,0.00
2023-02-16T02:20:29.097Z,0.00
2023-02-16T02:21:29.091Z,0.00
2023-02-16T02:22:29.080Z,0.00
2023-02-16T02:23:29.067Z,0.00
2023-02-16T02:24:29.052Z,0.00
2023-02-16T02:25:29.079Z,0.00
2023-02-16T02:26:29.031Z,0.00
2023-02-16T02:27:29.023Z,0.00
2023-02-16T02:28:29.015Z,0.00
2023-02-16T02:29:29.004Z,0.00
2023-02-16T02:30:29.047Z,0.00
2023-02-16T02:31:29.055Z,0.00
2023-02-16T02:32:28.976Z,0.00
2023-02-16T02:33:30.955Z,0.00
2023-02-16T02:34:28.949Z,0.00
2023-02-16T02:35:28.937Z,0.00
2023-02-16T02:36:28.915Z,0.00
2023-02-16T02:37:28.904Z,0.00
2023-02-16T02:38:28.903Z,0.00
2023-02-16T02:39:28.885Z,0.00
2023-02-16T02:40:28.869Z,0.00
2023-02-16T02:41:28.900Z,0.00
2023-02-16T02:42:28.858Z,0.00
2023-02-16T02:43:28.848Z,0.00
2023-02-16T02:44:28.825Z,0.00
2023-02-16T02:45:28.815Z,0.00
2023-02-16T02:46:28.868Z,0.00
2023-02-16T02:47:28.799Z,0.00
2023-02-16T02:48:28.807Z,0.00
2023-02-16T02:49:28.772Z,0.00
2023-02-16T02:50:28.764Z,0.00
2023-02-16T02:51:28.771Z,0.00
2023-02-16T02:52:28.732Z,0.00
2023-02-16T02:53:28.722Z,0.00
2023-02-16T02:54:28.720Z,0.00
2023-02-16T02:55:28.710Z,0.00
2023-02-16T02:56:28.692Z,0.00
2023-02-16T02:57:28.717Z,0.00
2023-02-16T02:58:28.677Z,0.00
2023-02-16T02:59:28.665Z,0.00
2023-02-16T03:00:28.658Z,0.00
2023-02-16T03:01:28.750Z,0.00
2023-02-16T03:02:28.628Z,0.00
2023-02-16T03:03:28.615Z,0.00
2023-02-16T03:04:28.613Z,0.00
2023-02-16T03:05:28.593Z,0.00
2023-02-16T03:06:28.592Z,0.00
2023-02-16T03:07:28.569Z,0.00
2023-02-16T03:08:28.550Z,0.00
2023-02-16T03:09:28.542Z,0.00
2023-02-16T03:10:28.541Z,0.00
2023-02-16T03:11:28.517Z,0.00
2023-02-16T03:12:28.508Z,0.00
2023-02-16T03:13:28.530Z,0.00
2023-02-16T03:14:28.494Z,0.00
2023-02-16T03:15:28.521Z,0.00
2023-02-16T03:16:28.495Z,0.00
2023-02-16T03:17:28.458Z,0.00
2023-02-16T03:18:28.443Z,0.00
2023-02-16T03:19:28.429Z,0.00
2023-02-16T03:20:28.423Z,0.00
2023-02-16T03:21:28.410Z,0.00
2023-02-16T03:22:28.403Z,0.00
2023-02-16T03:23:28.376Z,0.00
2023-02-16T03:24:28.372Z,0.00
2023-02-16T03:25:28.353Z,0.00
2023-02-16T03:26:28.342Z,0.00
2023-02-16T03:27:28.336Z,0.00
2023-02-16T03:28:28.329Z,0.00
2023-02-16T03:29:28.336Z,0.00
2023-02-16T03:30:28.443Z,0.00
2023-02-16T03:31:28.429Z,0.00
2023-02-16T03:32:28.280Z,0.00
2023-02-16T03:33:28.267Z,0.00
2023-02-16T03:34:28.256Z,0.00
2023-02-16T03:35:28.238Z,0.00
2023-02-16T03:36:28.248Z,0.00
2023-02-16T03:37:28.218Z,0.00
2023-02-16T03:38:28.231Z,0.00
2023-02-16T03:39:28.197Z,0.00
2023-02-16T03:40:28.186Z,0.00
2023-02-16T03:41:28.176Z,0.00
2023-02-16T03:42:28.170Z,0.00
2023-02-16T03:43:28.155Z,0.00
2023-02-16T03:44:28.138Z,0.00
2023-02-16T03:45:28.225Z,0.00
2023-02-16T03:46:28.122Z,0.00
2023-02-16T03:47:28.110Z,0.00
2023-02-16T03:48:28.097Z,0.00
2023-02-16T03:49:28.084Z,0.00
2023-02-16T03:50:28.082Z,0.00
2023-02-16T03:51:28.055Z,0.00
2023-02-16T03:52:28.042Z,0.00
2023-02-16T03:53:28.044Z,0.00
2023-02-16T03:54:28.030Z,0.00
2023-02-16T03:55:28.018Z,0.00
2023-02-16T03:56:28.005Z,0.00
2023-02-16T03:57:28.000Z,0.00
2023-02-16T03:58:27.987Z,0.00
2023-02-16T03:59:27.969Z,0.00
2023-02-16T04:00:27.972Z,0.00
2023-02-16T04:01:27.976Z,0.00
2023-02-16T04:02:28.046Z,0.00
2023-02-16T04:03:27.939Z,0.00
2023-02-16T04:04:28.044Z,0.00
2023-02-16T04:05:27.912Z,0.00
2023-02-16T04:06:27.892Z,0.00
2023-02-16T04:07:29.088Z,0.00
2023-02-16T04:08:27.874Z,0.00
2023-02-16T04:09:27.855Z,0.00
2023-02-16T04:10:27.848Z,0.00
2023-02-16T04:11:27.844Z,0.00
2023-02-16T04:12:27.828Z,0.00
2023-02-16T04:13:27.816Z,0.00
2023-02-16T04:14:27.801Z,0.00
2023-02-16T04:15:27.804Z,0.00
2023-02-16T04:16:27.836Z,0.00
2023-02-16T04:17:27.798Z,0.00
2023-02-16T04:18:27.763Z,0.00
2023-02-16T04:19:27.764Z,0.00
2023-02-16T04:20:27.739Z,0.00
2023-02-16T04:21:27.729Z,0.00
2023-02-16T04:22:27.708Z,0.00
2023-02-16T04:23:27.703Z,0.00
2023-02-16T04:24:27.693Z,0.00
2023-02-16T04:25:27.689Z,0.00
2023-02-16T04:26:27.683Z,0.00
2023-02-16T04:27:27.657Z,0.00
2023-02-16T04:28:27.639Z,0.00
2023-02-16T04:29:27.640Z,0.00
2023-02-16T04:30:27.782Z,0.00
2023-02-16T04:31:27.790Z,0.00
2023-02-16T04:32:27.636Z,0.00
2023-02-16T04:33:27.620Z,0.00
2023-02-16T04:34:27.568Z,0.00
2023-02-16T04:35:27.607Z,0.00
2023-02-16T04:36:27.593Z,0.00
2023-02-16T04:37:27.540Z,0.00
2023-02-16T04:38:27.539Z,0.00
2023-02-16T04:39:27.531Z,0.00
2023-02-16T04:40:27.505Z,0.00
2023-02-16T04:41:27.497Z,0.00
2023-02-16T04:42:27.484Z,0.00
2023-02-16T04:43:27.479Z,0.00
2023-02-16T04:44:27.457Z,0.00
2023-02-16T04:45:27.463Z,0.00
2023-02-16T04:46:27.516Z,0.00
2023-02-16T04:47:27.435Z,0.00
2023-02-16T04:48:27.416Z,0.00
2023-02-16T04:49:27.433Z,0.00
2023-02-16T04:50:27.394Z,0.00
2023-02-16T04:51:27.385Z,0.00
2023-02-16T04:52:27.367Z,0.00
2023-02-16T04:53:27.358Z,0.00
2023-02-16T04:54:27.349Z,0.00
2023-02-16T04:55:27.336Z,0.00
2023-02-16T04:56:27.317Z,0.00
2023-02-16T04:57:27.316Z,0.00
2023-02-16T04:58:27.301Z,0.00
2023-02-16T04:59:27.284Z,0.00
2023-02-16T05:00:27.299Z,0.00
2023-02-16T05:01:27.415Z,0.00
2023-02-16T05:02:27.266Z,0.00
2023-02-16T05:03:27.238Z,0.00
2023-02-16T05:04:27.287Z,0.00
2023-02-16T05:05:27.248Z,0.00
2023-02-16T05:06:27.209Z,0.00
2023-02-16T05:07:27.202Z,0.00
2023-02-16T05:08:27.188Z,0.00
2023-02-16T05:09:27.173Z,0.00
2023-02-16T05:10:27.160Z,0.00
2023-02-16T05:11:27.154Z,0.00
2023-02-16T05:12:27.144Z,0.00
2023-02-16T05:13:27.132Z,0.00
2023-02-16T05:14:27.122Z,0.00
2023-02-16T05:15:27.112Z,0.00
2023-02-16T05:16:27.106Z,0.00
2023-02-16T05:17:27.145Z,0.00
2023-02-16T05:18:27.080Z,0.00
2023-02-16T05:19:27.064Z,0.00
2023-02-16T05:20:27.066Z,0.00
2023-02-16T05:21:27.080Z,0.00
2023-02-16T05:22:27.028Z,0.00
2023-02-16T05:23:27.020Z,0.00
2023-02-16T05:24:28.480Z,0.00
2023-02-16T05:25:27.000Z,0.00
2023-02-16T05:26:26.993Z,0.00
2023-02-16T05:27:26.968Z,0.00
2023-02-16T05:28:27.015Z,0.00
2023-02-16T05:29:26.946Z,0.00
2023-02-16T05:30:26.985Z,0.00
2023-02-16T05:31:27.075Z,0.00
2023-02-16T05:32:26.916Z,0.00
2023-02-16T05:33:26.899Z,0.00
2023-02-16T05:34:26.899Z,0.00
2023-02-16T05:35:26.889Z,0.00
2023-02-16T05:36:26.882Z,0.00
2023-02-16T05:37:26.890Z,0.00
2023-02-16T05:38:26.844Z,0.00
2023-02-16T05:39:26.833Z,0.00
2023-02-16T05:40:26.826Z,0.00
2023-02-16T05:41:26.819Z,0.00
2023-02-16T05:42:26.838Z,0.00
2023-02-16T05:43:26.796Z,0.00
2023-02-16T05:44:26.783Z,0.00
2023-02-16T05:45:26.767Z,0.00
2023-02-16T05:46:26.831Z,0.00
2023-02-16T05:47:26.762Z,0.00
2023-02-16T05:48:26.735Z,0.00
2023-02-16T05:49:26.729Z,0.00
2023-02-16T05:50:26.715Z,0.00
2023-02-16T05:51:26.708Z,0.00
2023-02-16T05:52:26.694Z,0.00
2023-02-16T05:53:26.716Z,4.00
2023-02-16T05:54:26.666Z,4.00
2023-02-16T05:55:26.655Z,4.00
2023-02-16T05:56:28.651Z,4.00
2023-02-16T05:57:26.633Z,0.00
2023-02-16T05:58:26.630Z,4.00
2023-02-16T05:59:26.625Z,4.00
2023-02-16T06:00:26.604Z,4.00
2023-02-16T06:01:26.590Z,8.00
2023-02-16T06:02:28.656Z,8.00
2023-02-16T06:03:26.654Z,8.00
2023-02-16T06:04:28.591Z,8.00
2023-02-16T06:05:26.559Z,8.00
2023-02-16T06:06:26.534Z,12.00
2023-02-16T06:07:26.529Z,12.00
2023-02-16T06:08:26.515Z,16.00
2023-02-16T06:09:26.524Z,16.00
2023-02-16T06:10:26.485Z,20.00
2023-02-16T06:11:26.474Z,20.00
2023-02-16T06:12:26.469Z,20.00
2023-02-16T06:13:26.454Z,24.00
2023-02-16T06:14:26.443Z,32.00
2023-02-16T06:15:26.437Z,32.00
2023-02-16T06:16:26.477Z,36.00
2023-02-16T06:17:26.419Z,40.00
2023-02-16T06:18:26.412Z,44.00
2023-02-16T06:19:26.389Z,48.00
2023-02-16T06:20:26.372Z,52.00
2023-02-16T06:21:26.383Z,52.00
2023-02-16T06:22:26.356Z,56.00
2023-02-16T06:23:26.363Z,60.00
2023-02-16T06:24:28.864Z,68.00
2023-02-16T06:25:26.335Z,68.00
2023-02-16T06:26:26.305Z,72.00
2023-02-16T06:27:28.300Z,76.00
2023-02-16T06:28:26.291Z,84.00
2023-02-16T06:29:26.284Z,88.00
2023-02-16T06:30:26.297Z,96.00
2023-02-16T06:31:26.387Z,104.00
2023-02-16T06:32:26.354Z,108.00
2023-02-16T06:33:26.224Z,112.00
2023-02-16T06:34:26.220Z,124.00
2023-02-16T06:35:26.209Z,128.00
2023-02-16T06:36:26.201Z,140.00
2023-02-16T06:37:26.193Z,152.00
2023-02-16T06:38:26.168Z,160.00
2023-02-16T06:39:26.173Z,172.00
2023-02-16T06:40:26.549Z,184.00
2023-02-16T06:41:26.140Z,192.00
2023-02-16T06:42:26.137Z,208.00
2023-02-16T06:43:26.120Z,220.00
2023-02-16T06:44:26.102Z,232.00
2023-02-16T06:45:26.100Z,248.00
2023-02-16T06:46:26.173Z,260.00
2023-02-16T06:47:26.074Z,276.00
2023-02-16T06:48:26.067Z,288.00
2023-02-16T06:49:27.735Z,300.00
2023-02-16T06:50:26.038Z,316.00
2023-02-16T06:51:26.027Z,332.00
2023-02-16T06:52:26.021Z,348.00
2023-02-16T06:53:25.998Z,372.00
2023-02-16T06:54:25.998Z,396.00
2023-02-16T06:55:25.983Z,424.00
2023-02-16T06:56:25.993Z,448.00
2023-02-16T06:57:25.955Z,476.00
2023-02-16T06:58:25.951Z,520.00
2023-02-16T06:59:25.937Z,572.00
2023-02-16T07:00:25.974Z,624.00
2023-02-16T07:01:26.297Z,656.00
2023-02-16T07:02:25.910Z,672.00
2023-02-16T07:03:25.931Z,672.00
2023-02-16T07:04:25.875Z,684.00
2023-02-16T07:05:25.865Z,716.00
2023-02-16T07:06:25.861Z,748.00
2023-02-16T07:07:25.841Z,776.00
2023-02-16T07:08:25.831Z,808.00
2023-02-16T07:09:25.819Z,844.00
2023-02-16T07:10:25.813Z,880.00
2023-02-16T07:11:25.800Z,904.00
2023-02-16T07:12:25.817Z,936.00
2023-02-16T07:13:25.776Z,948.00
2023-02-16T07:14:25.760Z,964.00
2023-02-16T07:15:25.755Z,1016.00
2023-02-16T07:16:25.840Z,1020.00
2023-02-16T07:17:25.732Z,1024.00
2023-02-16T07:18:25.713Z,1076.00
2023-02-16T07:19:25.705Z,1100.00
2023-02-16T07:20:25.705Z,1144.00
2023-02-16T07:22:32.546Z,1144.00
2023-02-16T07:23:32.538Z,1088.00
2023-02-16T07:24:32.527Z,1112.00
2023-02-16T07:25:33.520Z,1196.00
2023-02-16T07:26:32.507Z,1240.00
2023-02-16T07:27:32.519Z,1240.00
2023-02-16T07:28:32.475Z,1300.00
2023-02-16T07:29:32.461Z,1420.00
2023-02-16T07:30:32.596Z,1400.00
2023-02-16T07:31:32.557Z,1280.00
2023-02-16T07:32:32.433Z,1280.00
2023-02-16T07:33:32.425Z,1292.00
2023-02-16T07:34:32.403Z,1332.00
2023-02-16T07:35:32.390Z,1476.00
2023-02-16T07:36:32.391Z,1552.00
2023-02-16T07:37:32.392Z,1608.00
2023-02-16T07:38:32.369Z,1708.00
2023-02-16T07:39:32.349Z,1744.00
2023-02-16T07:40:32.347Z,1712.00
2023-02-16T07:41:32.326Z,1652.00
2023-02-16T07:42:32.307Z,1532.00
2023-02-16T07:43:32.338Z,1524.00
2023-02-16T07:44:32.294Z,1680.00
2023-02-16T07:45:32.341Z,1820.00
2023-02-16T07:46:33.362Z,2020.00
2023-02-16T07:47:32.250Z,2100.00
2023-02-16T07:48:32.244Z,2204.00
2023-02-16T07:49:32.233Z,2268.00
2023-02-16T07:50:32.215Z,2428.00
2023-02-16T07:51:32.221Z,2576.00
2023-02-16T07:52:32.220Z,2520.00
2023-02-16T07:53:32.192Z,2720.00
2023-02-16T07:54:32.177Z,2968.00
2023-02-16T07:55:32.173Z,3156.00
2023-02-16T07:56:32.170Z,3148.00
2023-02-16T07:57:32.135Z,3364.00
2023-02-16T07:58:32.141Z,3368.00
2023-02-16T07:59:32.149Z,3296.00
2023-02-16T08:00:32.109Z,3428.00
2023-02-16T08:01:32.100Z,3332.00
2023-02-16T08:02:32.232Z,3580.00
2023-02-16T08:03:32.068Z,3916.00
2023-02-16T08:04:32.062Z,3840.00
2023-02-16T08:05:32.056Z,3928.00
2023-02-16T08:06:32.037Z,4056.00
2023-02-16T08:07:32.124Z,3620.00
2023-02-16T08:08:32.022Z,3172.00
2023-02-16T08:09:32.013Z,3196.00
2023-02-16T08:10:32.016Z,2868.00
2023-02-16T08:11:31.993Z,2580.00
2023-02-16T08:12:31.986Z,2980.00
2023-02-16T08:13:31.966Z,3424.00
2023-02-16T08:14:31.948Z,4012.00
2023-02-16T08:15:32.105Z,3416.00
2023-02-16T08:16:31.979Z,2960.00
2023-02-16T08:17:31.917Z,3096.00
2023-02-16T08:18:31.917Z,3428.00
2023-02-16T08:19:31.894Z,3084.00
2023-02-16T08:20:57.260Z,2560.00
2023-02-16T08:21:31.891Z,2448.00
2023-02-16T08:22:31.871Z,2516.00
2023-02-16T08:23:32.038Z,2480.00
2023-02-16T08:24:31.863Z,2640.00
2023-02-16T08:25:31.835Z,2700.00
2023-02-16T08:26:31.827Z,2832.00
2023-02-16T08:27:31.923Z,2736.00
2023-02-16T08:28:31.845Z,2868.00
2023-02-16T08:29:31.792Z,2632.00
2023-02-16T08:30:31.819Z,2636.00
2023-02-16T08:31:31.965Z,2676.00
2023-02-16T08:32:31.751Z,2812.00
2023-02-16T08:33:31.744Z,3188.00
2023-02-16T08:34:31.726Z,3160.00
2023-02-16T08:35:31.715Z,3004.00
2023-02-16T08:36:31.809Z,2896.00
2023-02-16T08:37:31.741Z,2708.00
2023-02-16T08:38:31.789Z,3268.00
2023-02-16T08:39:31.877Z,3576.00
2023-02-16T08:40:31.664Z,3812.00
2023-02-16T08:41:31.752Z,3848.00
2023-02-16T08:42:31.636Z,3928.00
2023-02-16T08:43:31.628Z,4008.00
2023-02-16T08:44:31.634Z,4032.00
2023-02-16T08:45:31.641Z,4020.00
2023-02-16T08:46:31.638Z,4028.00
2023-02-16T08:47:31.611Z,4056.00
2023-02-16T08:48:31.562Z,4076.00
2023-02-16T08:49:31.568Z,4108.00
2023-02-16T08:50:31.537Z,4048.00
2023-02-16T08:51:31.540Z,4020.00
2023-02-16T08:52:31.521Z,3564.00
2023-02-16T08:53:31.509Z,3892.00
2023-02-16T08:54:31.504Z,4236.00
2023-02-16T08:55:31.488Z,4304.00
2023-02-16T08:56:31.576Z,4312.00
2023-02-16T08:57:31.464Z,4324.00
2023-02-16T08:58:31.455Z,4332.00
2023-02-16T08:59:31.441Z,4344.00
2023-02-16T09:00:31.433Z,4376.00
2023-02-16T09:01:31.466Z,4416.00
2023-02-16T09:02:31.445Z,4436.00
2023-02-16T09:03:31.481Z,4500.00
2023-02-16T09:04:31.375Z,4512.00
2023-02-16T09:05:31.374Z,4620.00
2023-02-16T09:06:31.354Z,4616.00
2023-02-16T09:07:31.394Z,4676.00
2023-02-16T09:08:31.408Z,4724.00
2023-02-16T09:09:31.374Z,4748.00
2023-02-16T09:10:31.314Z,4740.00
2023-02-16T09:11:31.303Z,4764.00
2023-02-16T09:12:31.285Z,4780.00
2023-02-16T09:13:31.345Z,4824.00
2023-02-16T09:14:31.269Z,4816.00
2023-02-16T09:15:31.355Z,4876.00
2023-02-16T09:16:31.278Z,4868.00
2023-02-16T09:17:31.235Z,4892.00
2023-02-16T09:18:31.225Z,4932.00
2023-02-16T09:19:31.246Z,4980.00
2023-02-16T09:20:31.473Z,4984.00
2023-02-16T09:21:31.190Z,5000.00
2023-02-16T09:22:31.179Z,5016.00
2023-02-16T09:23:31.165Z,5028.00
2023-02-16T09:24:31.151Z,5120.00
2023-02-16T09:25:31.155Z,5088.00
2023-02-16T09:26:31.134Z,5144.00
2023-02-16T09:27:31.120Z,5164.00
2023-02-16T09:28:31.113Z,5184.00
2023-02-16T09:29:31.093Z,5224.00
2023-02-16T09:30:31.197Z,5212.00
2023-02-16T09:31:31.411Z,5260.00
2023-02-16T09:32:31.063Z,5300.00
2023-02-16T09:33:31.061Z,5348.00
2023-02-16T09:34:31.138Z,5412.00
2023-02-16T09:35:31.071Z,5448.00
2023-02-16T09:36:31.044Z,5492.00
2023-02-16T09:37:31.017Z,5548.00
2023-02-16T09:38:31.001Z,5592.00
2023-02-16T09:39:30.981Z,5644.00
2023-02-16T09:40:30.972Z,5720.00
2023-02-16T09:41:30.973Z,5716.00
2023-02-16T09:42:30.945Z,5740.00
2023-02-16T09:43:31.052Z,5796.00
2023-02-16T09:44:30.933Z,5800.00
2023-02-16T09:45:30.910Z,5848.00
2023-02-16T09:46:30.960Z,5868.00
2023-02-16T09:47:30.894Z,5868.00
2023-02-16T09:48:30.879Z,5916.00
2023-02-16T09:49:30.878Z,5808.00
2023-02-16T09:50:52.754Z,5708.00
2023-02-16T09:51:34.895Z,5664.00
2023-02-16T09:52:30.840Z,5640.00
2023-02-16T09:53:30.827Z,5628.00
2023-02-16T09:54:30.814Z,5604.00
2023-02-16T09:55:30.807Z,5588.00
2023-02-16T09:56:30.785Z,5608.00
2023-02-16T09:57:30.776Z,5516.00
2023-02-16T09:58:30.833Z,5472.00
2023-02-16T09:59:30.762Z,5384.00
2023-02-16T10:00:30.743Z,5464.00
2023-02-16T10:01:30.803Z,5512.00
2023-02-16T10:02:30.818Z,5508.00
2023-02-16T10:03:30.709Z,5700.00
2023-02-16T10:04:30.704Z,5844.00
2023-02-16T10:05:30.791Z,5852.00
2023-02-16T10:06:30.702Z,5840.00
2023-02-16T10:07:30.713Z,5988.00
2023-02-16T10:08:30.659Z,5888.00
2023-02-16T10:09:30.647Z,5932.00
2023-02-16T10:10:30.635Z,6024.00
2023-02-16T10:11:30.624Z,5888.00
2023-02-16T10:12:30.645Z,5916.00
2023-02-16T10:13:30.627Z,6036.00
2023-02-16T10:14:30.592Z,6096.00
2023-02-16T10:15:30.662Z,6268.00
2023-02-16T10:16:30.562Z,6332.00
2023-02-16T10:17:30.565Z,6120.00
2023-02-16T10:18:30.557Z,6316.00
2023-02-16T10:19:30.536Z,6260.00
2023-02-16T10:20:30.522Z,6068.00
2023-02-16T10:21:30.518Z,5760.00
2023-02-16T10:22:30.496Z,5736.00
2023-02-16T10:23:30.511Z,5508.00
2023-02-16T10:24:30.478Z,5160.00
2023-02-16T10:25:30.462Z,4644.00
2023-02-16T10:26:30.456Z,4696.00
2023-02-16T10:27:30.446Z,4600.00
2023-02-16T10:28:30.431Z,4588.00
2023-02-16T10:29:30.431Z,4788.00
2023-02-16T10:30:30.530Z,4600.00
2023-02-16T10:31:30.502Z,4456.00
2023-02-16T10:32:30.383Z,4732.00
2023-02-16T10:33:30.372Z,4944.00
2023-02-16T10:34:30.361Z,4748.00
2023-02-16T10:35:30.351Z,4624.00
2023-02-16T10:36:30.342Z,4804.00
2023-02-16T10:37:30.334Z,4352.00
2023-02-16T10:38:30.322Z,4456.00
2023-02-16T10:39:30.329Z,4488.00
2023-02-16T10:40:30.293Z,4484.00
2023-02-16T10:41:30.294Z,4436.00
2023-02-16T10:42:30.274Z,4236.00
2023-02-16T10:43:30.266Z,3956.00
2023-02-16T10:44:30.309Z,4028.00
2023-02-16T10:45:30.238Z,3900.00
2023-02-16T10:46:30.293Z,5640.00
2023-02-16T10:47:30.213Z,6304.00
2023-02-16T10:48:30.273Z,6684.00
2023-02-16T10:49:30.196Z,6892.00
2023-02-16T10:50:30.188Z,6548.00
2023-02-16T10:51:30.170Z,6380.00
2023-02-16T10:52:30.174Z,5616.00
2023-02-16T10:53:30.162Z,4732.00
2023-02-16T10:54:30.147Z,4984.00
2023-02-16T10:55:30.160Z,5348.00
2023-02-16T10:56:30.128Z,5376.00
2023-02-16T10:57:30.109Z,4160.00
2023-02-16T10:58:30.101Z,5084.00
2023-02-16T10:59:30.099Z,5196.00
2023-02-16T11:00:30.084Z,5060.00
2023-02-16T11:01:30.090Z,4928.00
2023-02-16T11:02:30.054Z,4768.00
2023-02-16T11:03:30.042Z,4476.00
2023-02-16T11:04:30.136Z,4636.00
2023-02-16T11:05:30.023Z,4364.00
2023-02-16T11:06:30.005Z,4648.00
2023-02-16T11:07:30.003Z,4560.00
2023-02-16T11:08:30.178Z,4340.00
2023-02-16T11:09:29.980Z,4372.00
2023-02-16T11:10:29.974Z,4976.00
2023-02-16T11:11:29.987Z,5176.00
2023-02-16T11:12:29.942Z,5236.00
2023-02-16T11:13:29.943Z,5204.00
2023-02-16T11:14:29.923Z,5132.00
2023-02-16T11:15:29.908Z,5040.00
2023-02-16T11:16:29.920Z,4872.00
2023-02-16T11:17:29.903Z,4080.00
2023-02-16T11:18:29.874Z,3128.00
2023-02-16T11:19:29.872Z,2920.00
2023-02-16T11:20:29.857Z,2724.00
2023-02-16T11:21:29.852Z,2844.00
2023-02-16T11:22:29.850Z,3540.00
2023-02-16T11:23:30.074Z,3884.00
2023-02-16T11:24:29.821Z,4188.00
2023-02-16T11:25:29.810Z,4120.00
2023-02-16T11:26:29.802Z,4320.00
2023-02-16T11:27:29.808Z,3644.00
2023-02-16T11:28:32.363Z,4640.00
2023-02-16T11:29:29.757Z,4756.00
2023-02-16T11:30:29.928Z,4760.00
2023-02-16T11:31:30.013Z,4440.00
2023-02-16T11:32:29.723Z,4752.00
2023-02-16T11:33:29.712Z,4968.00
2023-02-16T11:34:29.710Z,4696.00
2023-02-16T11:35:29.698Z,5000.00
2023-02-16T11:36:29.694Z,5164.00
2023-02-16T11:37:29.667Z,5056.00
2023-02-16T11:38:29.664Z,5020.00
2023-02-16T11:39:29.650Z,5132.00
2023-02-16T11:40:29.641Z,4936.00
2023-02-16T11:41:29.649Z,4764.00
2023-02-16T11:42:29.609Z,4588.00
2023-02-16T11:43:29.624Z,4656.00
2023-02-16T11:44:29.592Z,4872.00
2023-02-16T11:45:31.339Z,5208.00
2023-02-16T11:46:29.627Z,5388.00
2023-02-16T11:47:29.564Z,5636.00
2023-02-16T11:48:29.543Z,5360.00
2023-02-16T11:49:29.523Z,5012.00
2023-02-16T11:50:29.519Z,5324.00
2023-02-16T11:51:29.506Z,5552.00
2023-02-16T11:52:29.507Z,5684.00
2023-02-16T11:53:29.489Z,5584.00
2023-02-16T11:54:29.474Z,5432.00
2023-02-16T11:55:29.465Z,5412.00
2023-02-16T11:56:29.456Z,5532.00
2023-02-16T11:57:29.432Z,5416.00
2023-02-16T11:58:29.433Z,5432.00
2023-02-16T11:59:29.438Z,5516.00
2023-02-16T12:00:29.410Z,5608.00
2023-02-16T12:01:29.406Z,5576.00
2023-02-16T12:02:29.376Z,5768.00
2023-02-16T12:03:31.341Z,5740.00
2023-02-16T12:04:29.361Z,5628.00
2023-02-16T12:05:29.412Z,5520.00
2023-02-16T12:06:29.339Z,5388.00
2023-02-16T12:07:29.330Z,5200.00
2023-02-16T12:08:29.312Z,5336.00
2023-02-16T12:09:31.013Z,5348.00
2023-02-16T12:10:29.286Z,5164.00
2023-02-16T12:11:29.288Z,5212.00
2023-02-16T12:12:29.279Z,5128.00
2023-02-16T12:13:29.262Z,5200.00
2023-02-16T12:14:29.258Z,4872.00
2023-02-16T12:15:29.255Z,4988.00
2023-02-16T12:16:29.277Z,5164.00
2023-02-16T12:17:29.211Z,5256.00
2023-02-16T12:18:29.198Z,5324.00
2023-02-16T12:19:29.189Z,5208.00
2023-02-16T12:20:29.174Z,5120.00
2023-02-16T12:21:29.171Z,5120.00
2023-02-16T12:22:29.157Z,4716.00
2023-02-16T12:23:29.151Z,4764.00
2023-02-16T12:24:29.133Z,4868.00
2023-02-16T12:25:29.114Z,4984.00
2023-02-16T12:26:29.105Z,4808.00
2023-02-16T12:27:29.101Z,4624.00
2023-02-16T12:28:29.082Z,4492.00
2023-02-16T12:29:29.067Z,4748.00
2023-02-16T12:30:29.090Z,4868.00
2023-02-16T12:31:29.151Z,4784.00
2023-02-16T12:32:29.033Z,4776.00
2023-02-16T12:33:29.024Z,4808.00
2023-02-16T12:34:29.032Z,4692.00
2023-02-16T12:35:28.998Z,4664.00
2023-02-16T12:36:29.000Z,4724.00
2023-02-16T12:37:28.990Z,4528.00
2023-02-16T12:38:28.969Z,4608.00
2023-02-16T12:39:28.954Z,4760.00
2023-02-16T12:40:28.963Z,4716.00
2023-02-16T12:41:28.938Z,4380.00
2023-02-16T12:42:28.924Z,3560.00